TPC1496 KCVG-KFDY
Flight info
| Callsign | TPC1496 |
|---|---|
| Flight time | 0h 56m |
| Altitude | 5000 |
| Route | CVG7 ROD V47 FBC |
| Aircraft | C172/L-VGD/C |
Departure
| Time | 2026-04-16 02:02 |
|---|---|
| Airport | Cincinnati Northern Kentucky International Airport (KCVG) |
Arrival
| Time | 2026-04-16 02:58 |
|---|---|
| Airport | Findlay Airport (KFDY) |
| Time | Latitude | Longitude | Altitude | Speed | Heading |
|---|---|---|---|---|---|
| 2026-04-16 01:49 | 39.04330 | -84.65593 | 878 ft | 0 kts | 90° |
| 2026-04-16 01:58 | 39.04330 | -84.65592 | 878 ft | 1 kts | 89° |
| 2026-04-16 01:58 | 39.04370 | -84.65578 | 878 ft | 10 kts | 1° |
| 2026-04-16 01:58 | 39.04447 | -84.65583 | 878 ft | 11 kts | 13° |
| 2026-04-16 01:59 | 39.04461 | -84.65511 | 878 ft | 8 kts | 90° |
| 2026-04-16 01:59 | 39.04460 | -84.65441 | 879 ft | 9 kts | 91° |
| 2026-04-16 01:59 | 39.04466 | -84.65359 | 879 ft | 9 kts | 79° |
| 2026-04-16 01:59 | 39.04505 | -84.65302 | 879 ft | 9 kts | 12° |
| 2026-04-16 02:00 | 39.04530 | -84.65299 | 879 ft | 0 kts | 360° |
| 2026-04-16 02:00 | 39.04531 | -84.65299 | 879 ft | 2 kts | 359° |
| 2026-04-16 02:00 | 39.04619 | -84.65314 | 879 ft | 20 kts | 312° |
| 2026-04-16 02:00 | 39.04628 | -84.65373 | 879 ft | 6 kts | 270° |
| 2026-04-16 02:01 | 39.04629 | -84.65652 | 875 ft | 56 kts | 271° |
| 2026-04-16 02:01 | 39.04619 | -84.66303 | 928 ft | 85 kts | 268° |
| 2026-04-16 02:01 | 39.04626 | -84.67102 | 1071 ft | 94 kts | 265° |
| 2026-04-16 02:01 | 39.04612 | -84.67974 | 1206 ft | 100 kts | 265° |
| 2026-04-16 02:02 | 39.04593 | -84.68885 | 1373 ft | 104 kts | 265° |
| 2026-04-16 02:02 | 39.04595 | -84.69825 | 1547 ft | 105 kts | 265° |
| 2026-04-16 02:02 | 39.04614 | -84.70748 | 1720 ft | 103 kts | 266° |
| 2026-04-16 02:02 | 39.04954 | -84.71555 | 1895 ft | 119 kts | 320° |
| 2026-04-16 02:03 | 39.05815 | -84.71695 | 2066 ft | 128 kts | 354° |
| 2026-04-16 02:03 | 39.06689 | -84.71684 | 2244 ft | 123 kts | 354° |
| 2026-04-16 02:03 | 39.07537 | -84.71679 | 2410 ft | 122 kts | 353° |
| 2026-04-16 02:04 | 39.09293 | -84.71636 | 2769 ft | 132 kts | 353° |
| 2026-04-16 02:04 | 39.10210 | -84.71605 | 2943 ft | 133 kts | 353° |
| 2026-04-16 02:04 | 39.11130 | -84.71565 | 3108 ft | 131 kts | 353° |
| 2026-04-16 02:04 | 39.12014 | -84.71506 | 3273 ft | 123 kts | 354° |
| 2026-04-16 02:05 | 39.12844 | -84.71438 | 3429 ft | 118 kts | 355° |
| 2026-04-16 02:05 | 39.13663 | -84.71385 | 3591 ft | 119 kts | 353° |
| 2026-04-16 02:05 | 39.14513 | -84.71339 | 3761 ft | 124 kts | 353° |
| 2026-04-16 02:05 | 39.15382 | -84.71286 | 3940 ft | 126 kts | 353° |
| 2026-04-16 02:06 | 39.16260 | -84.71234 | 4115 ft | 126 kts | 354° |
| 2026-04-16 02:06 | 39.17122 | -84.71019 | 4289 ft | 130 kts | 21° |
| 2026-04-16 02:06 | 39.17931 | -84.70523 | 4458 ft | 127 kts | 20° |
| 2026-04-16 02:06 | 39.18740 | -84.70045 | 4631 ft | 128 kts | 20° |
| 2026-04-16 02:07 | 39.19539 | -84.69575 | 4796 ft | 125 kts | 19° |
| 2026-04-16 02:07 | 39.20328 | -84.69113 | 4958 ft | 124 kts | 20° |
| 2026-04-16 02:07 | 39.21140 | -84.68634 | 4992 ft | 134 kts | 21° |
| 2026-04-16 02:07 | 39.22023 | -84.68111 | 4997 ft | 146 kts | 21° |
| 2026-04-16 02:08 | 39.22953 | -84.67560 | 4993 ft | 151 kts | 21° |
| 2026-04-16 02:08 | 39.23898 | -84.66998 | 4986 ft | 150 kts | 21° |
| 2026-04-16 02:08 | 39.24844 | -84.66442 | 4988 ft | 149 kts | 20° |
| 2026-04-16 02:08 | 39.25788 | -84.65888 | 4986 ft | 150 kts | 21° |
| 2026-04-16 02:09 | 39.26738 | -84.65327 | 4988 ft | 149 kts | 21° |
| 2026-04-16 02:09 | 39.27682 | -84.64773 | 4987 ft | 150 kts | 20° |
| 2026-04-16 02:09 | 39.28635 | -84.64212 | 4987 ft | 151 kts | 21° |
| 2026-04-16 02:09 | 39.29588 | -84.63650 | 4989 ft | 152 kts | 20° |
| 2026-04-16 02:10 | 39.30549 | -84.63085 | 4988 ft | 151 kts | 21° |
| 2026-04-16 02:10 | 39.31514 | -84.62516 | 4987 ft | 154 kts | 21° |
| 2026-04-16 02:10 | 39.32482 | -84.61946 | 4983 ft | 152 kts | 21° |
| 2026-04-16 02:10 | 39.33447 | -84.61377 | 4989 ft | 153 kts | 21° |
| 2026-04-16 02:11 | 39.34413 | -84.60806 | 4986 ft | 152 kts | 21° |
| 2026-04-16 02:11 | 39.35372 | -84.60241 | 4986 ft | 152 kts | 21° |
| 2026-04-16 02:11 | 39.36339 | -84.59671 | 4991 ft | 153 kts | 21° |
| 2026-04-16 02:11 | 39.37308 | -84.59098 | 4986 ft | 153 kts | 21° |
| 2026-04-16 02:12 | 39.38269 | -84.58531 | 4987 ft | 151 kts | 20° |
| 2026-04-16 02:12 | 39.39228 | -84.57966 | 4985 ft | 152 kts | 20° |
| 2026-04-16 02:12 | 39.40186 | -84.57400 | 4988 ft | 152 kts | 21° |
| 2026-04-16 02:12 | 39.41149 | -84.56831 | 4980 ft | 153 kts | 20° |
| 2026-04-16 02:13 | 39.42117 | -84.56259 | 4987 ft | 153 kts | 20° |
| 2026-04-16 02:13 | 39.43082 | -84.55688 | 4993 ft | 153 kts | 20° |
| 2026-04-16 02:13 | 39.44061 | -84.55108 | 4972 ft | 155 kts | 20° |
| 2026-04-16 02:13 | 39.45039 | -84.54530 | 4984 ft | 154 kts | 21° |
| 2026-04-16 02:14 | 39.46011 | -84.53956 | 4980 ft | 153 kts | 20° |
| 2026-04-16 02:14 | 39.46985 | -84.53379 | 4987 ft | 155 kts | 20° |
| 2026-04-16 02:14 | 39.47964 | -84.52799 | 5008 ft | 153 kts | 20° |
| 2026-04-16 02:14 | 39.48933 | -84.52225 | 5009 ft | 153 kts | 20° |
| 2026-04-16 02:15 | 39.49909 | -84.51648 | 5012 ft | 155 kts | 21° |
| 2026-04-16 02:15 | 39.50891 | -84.51065 | 5013 ft | 156 kts | 21° |
| 2026-04-16 02:15 | 39.51877 | -84.50480 | 5016 ft | 156 kts | 20° |
| 2026-04-16 02:15 | 39.52860 | -84.49897 | 5010 ft | 155 kts | 20° |
| 2026-04-16 02:16 | 39.53836 | -84.49318 | 5014 ft | 154 kts | 20° |
| 2026-04-16 02:16 | 39.54816 | -84.48737 | 5014 ft | 156 kts | 20° |
| 2026-04-16 02:16 | 39.55786 | -84.48161 | 5012 ft | 156 kts | 20° |
| 2026-04-16 02:16 | 39.56778 | -84.47571 | 5017 ft | 157 kts | 20° |
| 2026-04-16 02:17 | 39.57769 | -84.46982 | 5019 ft | 156 kts | 20° |
| 2026-04-16 02:17 | 39.58748 | -84.46400 | 5016 ft | 154 kts | 20° |
| 2026-04-16 02:17 | 39.59728 | -84.45819 | 5019 ft | 156 kts | 20° |
| 2026-04-16 02:17 | 39.60715 | -84.45232 | 5017 ft | 157 kts | 19° |
| 2026-04-16 02:18 | 39.61712 | -84.44638 | 5020 ft | 157 kts | 19° |
| 2026-04-16 02:18 | 39.62701 | -84.44049 | 5019 ft | 157 kts | 21° |
| 2026-04-16 02:18 | 39.63694 | -84.43460 | 5017 ft | 157 kts | 20° |
| 2026-04-16 02:18 | 39.64686 | -84.42869 | 5021 ft | 157 kts | 20° |
| 2026-04-16 02:19 | 39.65675 | -84.42279 | 5018 ft | 155 kts | 20° |
| 2026-04-16 02:19 | 39.66661 | -84.41692 | 5017 ft | 157 kts | 20° |
| 2026-04-16 02:19 | 39.67658 | -84.41099 | 5018 ft | 158 kts | 20° |
| 2026-04-16 02:19 | 39.68657 | -84.40503 | 5017 ft | 158 kts | 20° |
| 2026-04-16 02:20 | 39.69651 | -84.39909 | 5018 ft | 156 kts | 20° |
| 2026-04-16 02:20 | 39.70643 | -84.39318 | 5014 ft | 157 kts | 20° |
| 2026-04-16 02:20 | 39.71631 | -84.38730 | 5010 ft | 156 kts | 20° |
| 2026-04-16 02:20 | 39.72611 | -84.38143 | 5002 ft | 153 kts | 20° |
| 2026-04-16 02:21 | 39.73576 | -84.37569 | 5002 ft | 153 kts | 21° |
| 2026-04-16 02:21 | 39.74536 | -84.36996 | 5001 ft | 154 kts | 20° |
| 2026-04-16 02:21 | 39.75522 | -84.36407 | 5002 ft | 154 kts | 19° |
| 2026-04-16 02:21 | 39.76481 | -84.35834 | 4998 ft | 153 kts | 19° |
| 2026-04-16 02:22 | 39.77453 | -84.35253 | 5000 ft | 154 kts | 21° |
| 2026-04-16 02:22 | 39.78433 | -84.34667 | 5000 ft | 155 kts | 20° |
| 2026-04-16 02:22 | 39.79412 | -84.34081 | 4994 ft | 153 kts | 20° |
| 2026-04-16 02:22 | 39.80373 | -84.33506 | 4994 ft | 151 kts | 19° |
| 2026-04-16 02:23 | 39.81330 | -84.32935 | 4995 ft | 152 kts | 19° |
| 2026-04-16 02:23 | 39.82299 | -84.32354 | 4997 ft | 154 kts | 20° |
| 2026-04-16 02:23 | 39.83272 | -84.31771 | 4998 ft | 154 kts | 20° |
| 2026-04-16 02:23 | 39.84248 | -84.31187 | 4998 ft | 154 kts | 20° |
| 2026-04-16 02:24 | 39.85215 | -84.30607 | 4996 ft | 153 kts | 20° |
| 2026-04-16 02:24 | 39.86180 | -84.30029 | 4996 ft | 153 kts | 20° |
| 2026-04-16 02:24 | 39.87149 | -84.29448 | 4998 ft | 153 kts | 20° |
| 2026-04-16 02:24 | 39.88111 | -84.28870 | 4998 ft | 152 kts | 19° |
| 2026-04-16 02:25 | 39.89074 | -84.28293 | 4999 ft | 153 kts | 19° |
| 2026-04-16 02:25 | 39.90047 | -84.27710 | 5001 ft | 154 kts | 19° |
| 2026-04-16 02:25 | 39.91024 | -84.27122 | 5001 ft | 155 kts | 19° |
| 2026-04-16 02:25 | 39.92009 | -84.26531 | 5002 ft | 156 kts | 19° |
| 2026-04-16 02:26 | 39.92994 | -84.25939 | 5004 ft | 156 kts | 19° |
| 2026-04-16 02:26 | 39.93981 | -84.25345 | 5003 ft | 156 kts | 19° |
| 2026-04-16 02:26 | 39.94965 | -84.24754 | 5007 ft | 156 kts | 19° |
| 2026-04-16 02:26 | 39.95939 | -84.24169 | 5007 ft | 156 kts | 20° |
| 2026-04-16 02:27 | 39.96927 | -84.23574 | 5006 ft | 157 kts | 19° |
| 2026-04-16 02:27 | 39.97913 | -84.22980 | 5006 ft | 155 kts | 19° |
| 2026-04-16 02:27 | 39.98893 | -84.22390 | 5007 ft | 155 kts | 18° |
| 2026-04-16 02:27 | 39.99876 | -84.21799 | 5006 ft | 156 kts | 19° |
| 2026-04-16 02:28 | 40.00862 | -84.21205 | 5004 ft | 156 kts | 19° |
| 2026-04-16 02:28 | 40.01845 | -84.20613 | 5005 ft | 156 kts | 19° |
| 2026-04-16 02:28 | 40.02828 | -84.20020 | 5007 ft | 156 kts | 19° |
| 2026-04-16 02:28 | 40.03805 | -84.19431 | 5005 ft | 154 kts | 19° |
| 2026-04-16 02:29 | 40.04783 | -84.18842 | 5006 ft | 156 kts | 19° |
| 2026-04-16 02:29 | 40.05773 | -84.18244 | 5004 ft | 157 kts | 19° |
| 2026-04-16 02:29 | 40.06432 | -84.17847 | 5002 ft | 157 kts | 19° |
| 2026-04-16 02:29 | 40.07746 | -84.17052 | 5003 ft | 155 kts | 19° |
| 2026-04-16 02:30 | 40.08395 | -84.16661 | 5003 ft | 155 kts | 19° |
| 2026-04-16 02:30 | 40.09378 | -84.16069 | 5000 ft | 155 kts | 19° |
| 2026-04-16 02:30 | 40.10357 | -84.15477 | 5001 ft | 155 kts | 19° |
| 2026-04-16 02:30 | 40.11335 | -84.14885 | 4996 ft | 155 kts | 18° |
| 2026-04-16 02:31 | 40.12307 | -84.14299 | 4993 ft | 154 kts | 19° |
| 2026-04-16 02:31 | 40.13281 | -84.13709 | 4994 ft | 153 kts | 19° |
| 2026-04-16 02:31 | 40.14254 | -84.13121 | 4995 ft | 155 kts | 19° |
| 2026-04-16 02:31 | 40.15235 | -84.12527 | 4996 ft | 156 kts | 19° |
| 2026-04-16 02:32 | 40.16215 | -84.11934 | 4997 ft | 155 kts | 19° |
| 2026-04-16 02:32 | 40.17193 | -84.11341 | 4993 ft | 154 kts | 19° |
| 2026-04-16 02:32 | 40.18164 | -84.10753 | 4991 ft | 153 kts | 19° |
| 2026-04-16 02:32 | 40.19134 | -84.10167 | 4988 ft | 154 kts | 18° |
| 2026-04-16 02:33 | 40.20104 | -84.09579 | 4988 ft | 154 kts | 19° |
| 2026-04-16 02:33 | 40.21069 | -84.08993 | 4987 ft | 153 kts | 19° |
| 2026-04-16 02:33 | 40.22030 | -84.08410 | 4985 ft | 152 kts | 18° |
| 2026-04-16 02:33 | 40.22996 | -84.07825 | 4982 ft | 153 kts | 19° |
| 2026-04-16 02:34 | 40.23963 | -84.07238 | 4985 ft | 154 kts | 19° |
| 2026-04-16 02:34 | 40.24936 | -84.06647 | 4987 ft | 154 kts | 18° |
| 2026-04-16 02:34 | 40.25916 | -84.06052 | 4985 ft | 156 kts | 18° |
| 2026-04-16 02:34 | 40.26903 | -84.05453 | 4983 ft | 156 kts | 19° |
| 2026-04-16 02:35 | 40.27885 | -84.04855 | 4984 ft | 155 kts | 19° |
| 2026-04-16 02:35 | 40.28862 | -84.04273 | 4984 ft | 153 kts | 13° |
| 2026-04-16 02:35 | 40.29859 | -84.03851 | 4980 ft | 150 kts | 9° |
| 2026-04-16 02:35 | 40.30857 | -84.03431 | 4977 ft | 151 kts | 9° |
| 2026-04-16 02:36 | 40.31860 | -84.03003 | 4977 ft | 152 kts | 9° |
| 2026-04-16 02:36 | 40.32870 | -84.02571 | 4978 ft | 152 kts | 10° |
| 2026-04-16 02:36 | 40.33877 | -84.02141 | 4980 ft | 153 kts | 10° |
| 2026-04-16 02:36 | 40.34874 | -84.01716 | 4981 ft | 153 kts | 10° |
| 2026-04-16 02:37 | 40.35882 | -84.01285 | 4980 ft | 152 kts | 9° |
| 2026-04-16 02:37 | 40.36894 | -84.00854 | 4981 ft | 153 kts | 10° |
| 2026-04-16 02:37 | 40.37908 | -84.00422 | 4984 ft | 154 kts | 11° |
| 2026-04-16 02:37 | 40.38923 | -83.99987 | 4997 ft | 153 kts | 10° |
| 2026-04-16 02:38 | 40.39934 | -83.99555 | 4994 ft | 153 kts | 10° |
| 2026-04-16 02:38 | 40.40944 | -83.99125 | 4994 ft | 152 kts | 10° |
| 2026-04-16 02:38 | 40.41951 | -83.98695 | 4994 ft | 152 kts | 10° |
| 2026-04-16 02:38 | 40.42956 | -83.98265 | 4995 ft | 152 kts | 10° |
| 2026-04-16 02:39 | 40.43962 | -83.97835 | 4998 ft | 152 kts | 10° |
| 2026-04-16 02:39 | 40.44968 | -83.97405 | 4994 ft | 152 kts | 9° |
| 2026-04-16 02:39 | 40.45975 | -83.96975 | 4996 ft | 152 kts | 9° |
| 2026-04-16 02:39 | 40.46985 | -83.96543 | 4991 ft | 152 kts | 10° |
| 2026-04-16 02:40 | 40.47976 | -83.96118 | 4990 ft | 152 kts | 10° |
| 2026-04-16 02:40 | 40.48988 | -83.95684 | 4991 ft | 150 kts | 10° |
| 2026-04-16 02:40 | 40.49966 | -83.95266 | 4992 ft | 149 kts | 10° |
| 2026-04-16 02:40 | 40.50956 | -83.94843 | 4992 ft | 150 kts | 10° |
| 2026-04-16 02:41 | 40.51946 | -83.94419 | 4993 ft | 149 kts | 10° |
| 2026-04-16 02:41 | 40.52933 | -83.93996 | 4991 ft | 149 kts | 10° |
| 2026-04-16 02:41 | 40.53918 | -83.93573 | 4995 ft | 149 kts | 10° |
| 2026-04-16 02:41 | 40.54906 | -83.93149 | 4991 ft | 150 kts | 10° |
| 2026-04-16 02:42 | 40.55895 | -83.92724 | 4996 ft | 150 kts | 10° |
| 2026-04-16 02:42 | 40.56886 | -83.92299 | 4996 ft | 150 kts | 10° |
| 2026-04-16 02:42 | 40.57879 | -83.91873 | 4996 ft | 150 kts | 10° |
| 2026-04-16 02:42 | 40.58877 | -83.91444 | 4996 ft | 151 kts | 10° |
| 2026-04-16 02:43 | 40.59878 | -83.91014 | 4998 ft | 152 kts | 10° |
| 2026-04-16 02:43 | 40.60882 | -83.90581 | 5000 ft | 152 kts | 10° |
| 2026-04-16 02:43 | 40.61886 | -83.90150 | 5001 ft | 152 kts | 10° |
| 2026-04-16 02:43 | 40.62889 | -83.89718 | 5003 ft | 152 kts | 10° |
| 2026-04-16 02:44 | 40.63897 | -83.89284 | 5008 ft | 153 kts | 10° |
| 2026-04-16 02:44 | 40.64925 | -83.88843 | 5007 ft | 157 kts | 11° |
| 2026-04-16 02:44 | 40.65963 | -83.88395 | 5006 ft | 157 kts | 11° |
| 2026-04-16 02:44 | 40.66989 | -83.87951 | 5005 ft | 154 kts | 10° |
| 2026-04-16 02:45 | 40.67998 | -83.87517 | 5001 ft | 152 kts | 10° |
| 2026-04-16 02:45 | 40.69002 | -83.87085 | 5001 ft | 151 kts | 11° |
| 2026-04-16 02:45 | 40.69991 | -83.86660 | 5001 ft | 152 kts | 10° |
| 2026-04-16 02:45 | 40.70998 | -83.86226 | 5000 ft | 153 kts | 10° |
| 2026-04-16 02:46 | 40.72004 | -83.85792 | 5000 ft | 152 kts | 10° |
| 2026-04-16 02:46 | 40.73007 | -83.85358 | 5002 ft | 151 kts | 11° |
| 2026-04-16 02:46 | 40.74004 | -83.84928 | 5003 ft | 150 kts | 11° |
| 2026-04-16 02:46 | 40.74996 | -83.84500 | 4998 ft | 150 kts | 10° |
| 2026-04-16 02:47 | 40.75990 | -83.84072 | 4999 ft | 151 kts | 10° |
| 2026-04-16 02:47 | 40.76994 | -83.83638 | 4999 ft | 152 kts | 10° |
| 2026-04-16 02:47 | 40.77998 | -83.83203 | 4997 ft | 152 kts | 10° |
| 2026-04-16 02:47 | 40.78999 | -83.82771 | 4999 ft | 151 kts | 10° |
| 2026-04-16 02:48 | 40.79971 | -83.82346 | 4990 ft | 145 kts | 9° |
| 2026-04-16 02:48 | 40.80912 | -83.81938 | 4982 ft | 141 kts | 8° |
| 2026-04-16 02:48 | 40.81855 | -83.81529 | 4861 ft | 141 kts | 9° |
| 2026-04-16 02:48 | 40.82770 | -83.81127 | 4738 ft | 137 kts | 9° |
| 2026-04-16 02:49 | 40.83668 | -83.80740 | 4599 ft | 136 kts | 8° |
| 2026-04-16 02:49 | 40.84572 | -83.80352 | 4475 ft | 138 kts | 8° |
| 2026-04-16 02:49 | 40.85498 | -83.79956 | 4356 ft | 143 kts | 9° |
| 2026-04-16 02:49 | 40.86449 | -83.79542 | 4238 ft | 141 kts | 10° |
| 2026-04-16 02:50 | 40.87353 | -83.79139 | 4113 ft | 134 kts | 9° |
| 2026-04-16 02:50 | 40.88227 | -83.78756 | 3961 ft | 131 kts | 8° |
| 2026-04-16 02:50 | 40.89081 | -83.78386 | 3815 ft | 131 kts | 9° |
| 2026-04-16 02:50 | 40.89952 | -83.78009 | 3675 ft | 133 kts | 8° |
| 2026-04-16 02:51 | 40.90818 | -83.77631 | 3524 ft | 129 kts | 9° |
| 2026-04-16 02:51 | 40.91659 | -83.77266 | 3377 ft | 126 kts | 10° |
| 2026-04-16 02:51 | 40.92498 | -83.76903 | 3226 ft | 127 kts | 10° |
| 2026-04-16 02:51 | 40.93322 | -83.76544 | 3069 ft | 123 kts | 8° |
| 2026-04-16 02:52 | 40.94116 | -83.76200 | 2903 ft | 117 kts | 8° |
| 2026-04-16 02:52 | 40.94873 | -83.75870 | 2758 ft | 113 kts | 7° |
| 2026-04-16 02:52 | 40.95608 | -83.75451 | 2604 ft | 121 kts | 33° |
| 2026-04-16 02:52 | 40.96160 | -83.74620 | 2500 ft | 119 kts | 46° |
| 2026-04-16 02:53 | 40.96684 | -83.73818 | 2385 ft | 112 kts | 45° |
| 2026-04-16 02:53 | 40.97192 | -83.73040 | 2286 ft | 112 kts | 46° |
| 2026-04-16 02:53 | 40.97711 | -83.72245 | 2193 ft | 116 kts | 46° |
| 2026-04-16 02:53 | 40.98246 | -83.71419 | 2098 ft | 119 kts | 47° |
| 2026-04-16 02:54 | 40.98778 | -83.70596 | 2006 ft | 117 kts | 46° |
| 2026-04-16 02:54 | 40.99306 | -83.69780 | 1909 ft | 117 kts | 46° |
| 2026-04-16 02:54 | 40.99837 | -83.68959 | 1810 ft | 117 kts | 47° |
| 2026-04-16 02:54 | 41.00362 | -83.68161 | 1782 ft | 112 kts | 47° |
| 2026-04-16 02:55 | 41.00868 | -83.67373 | 1760 ft | 115 kts | 48° |
| 2026-04-16 02:55 | 41.01371 | -83.66554 | 1799 ft | 115 kts | 45° |
| 2026-04-16 02:55 | 41.01870 | -83.65721 | 1809 ft | 113 kts | 51° |
| 2026-04-16 02:55 | 41.02403 | -83.65008 | 1758 ft | 106 kts | 19° |
| 2026-04-16 02:56 | 41.03070 | -83.64786 | 1704 ft | 94 kts | 359° |
| 2026-04-16 02:56 | 41.03690 | -83.64745 | 1626 ft | 82 kts | 328° |
| 2026-04-16 02:56 | 41.03968 | -83.65248 | 1530 ft | 67 kts | 268° |
| 2026-04-16 02:56 | 41.03959 | -83.65875 | 1397 ft | 70 kts | 261° |
| 2026-04-16 02:57 | 41.03714 | -83.66398 | 1245 ft | 72 kts | 209° |
| 2026-04-16 02:57 | 41.03263 | -83.66551 | 1159 ft | 67 kts | 191° |
| 2026-04-16 02:57 | 41.02795 | -83.66598 | 1040 ft | 63 kts | 185° |
| 2026-04-16 02:57 | 41.02399 | -83.66605 | 927 ft | 56 kts | 180° |
| 2026-04-16 02:58 | 41.02001 | -83.66603 | 859 ft | 55 kts | 184° |
| 2026-04-16 02:58 | 41.01653 | -83.66612 | 810 ft | 46 kts | 185° |
| 2026-04-16 02:58 | 41.01431 | -83.66644 | 807 ft | 17 kts | 247° |
| 2026-04-16 02:58 | 41.01429 | -83.66715 | 808 ft | 0 kts | 273° |
| 2026-04-16 02:59 | 41.01435 | -83.66744 | 808 ft | 9 kts | 303° |
| 2026-04-16 02:59 | 41.01541 | -83.66764 | 807 ft | 20 kts | 360° |
| 2026-04-16 02:59 | 41.01672 | -83.66767 | 809 ft | 17 kts | 2° |
| 2026-04-16 03:00 | 41.01789 | -83.66763 | 809 ft | 17 kts | 1° |
| 2026-04-16 03:00 | 41.01889 | -83.66796 | 809 ft | 14 kts | 323° |
| 2026-04-16 03:00 | 41.01955 | -83.66825 | 809 ft | 0 kts | 279° |